Time;durP1;ratioP1;P1;durP2;ratioP2;P2;SDS_P1;SDS_P2;PMS_P1;PMS_P2;Temp;Humidity;BMP_temperature;BMP_pressure;BME280_temperature;BME280_humidity;BME280_pressure;Samples;Min_cycle;Max_cycle;Signal;HPM_P1;HPM_P2
2022/02/21 00:01:54;;;;;;;5.93;0.97;;;6.90;99.90;;;;;;5030882;28;20053;-70
2022/02/21 00:04:20;;;;;;;7.37;1.40;;;6.90;99.90;;;;;;5030569;28;20515;-70
2022/02/21 00:06:46;;;;;;;4.17;1.10;;;6.90;99.90;;;;;;5031012;28;20109;-70
2022/02/21 00:09:13;;;;;;;4.87;1.03;;;7.00;99.90;;;;;;5030764;28;20477;-70
2022/02/21 00:11:40;;;;;;;3.80;0.90;;;7.00;99.90;;;;;;5030886;28;20021;-70
2022/02/21 00:14:06;;;;;;;6.53;1.30;;;7.00;99.90;;;;;;5030511;28;20044;-70
2022/02/21 00:16:32;;;;;;;8.83;1.27;;;7.00;99.90;;;;;;5030584;28;20033;-70
2022/02/21 00:18:59;;;;;;;5.23;1.13;;;7.00;99.90;;;;;;5030682;28;20645;-70
2022/02/21 00:21:25;;;;;;;6.37;1.27;;;7.00;99.90;;;;;;5030707;28;20065;-70
2022/02/21 00:23:51;;;;;;;10.10;1.30;;;7.10;99.90;;;;;;5030064;28;20377;-70
2022/02/21 00:26:18;;;;;;;9.00;1.70;;;7.10;99.90;;;;;;5029821;28;20088;-70
2022/02/21 00:28:49;;;;;;;8.13;1.10;;;7.20;99.90;;;;;;5029725;28;20033;-70
2022/02/21 00:31:15;;;;;;;6.93;1.30;;;7.20;99.90;;;;;;5011703;28;20026;-70
2022/02/21 00:33:41;;;;;;;12.33;1.80;;;7.20;99.90;;;;;;5029529;28;20022;-70
2022/02/21 00:36:08;;;;;;;7.90;1.63;;;7.30;99.90;;;;;;5029757;28;20048;-70
2022/02/21 00:38:34;;;;;;;11.17;2.30;;;7.30;99.90;;;;;;5029964;28;20366;-70
2022/02/21 00:41:01;;;;;;;10.57;1.60;;;7.30;99.90;;;;;;5030079;28;20105;-70
2022/02/21 00:43:28;;;;;;;9.90;1.30;;;7.40;99.90;;;;;;5029897;28;20033;-70
2022/02/21 00:45:54;;;;;;;10.23;1.70;;;7.40;99.90;;;;;;5029665;28;20466;-70
2022/02/21 00:48:20;;;;;;;8.90;1.70;;;7.40;99.90;;;;;;5029662;28;20099;-70
2022/02/21 00:50:46;;;;;;;9.37;1.53;;;7.40;99.90;;;;;;5029859;28;20041;-70
2022/02/21 00:53:13;;;;;;;8.63;1.37;;;7.40;99.90;;;;;;5029751;28;20029;-70
2022/02/21 00:55:39;;;;;;;9.33;1.77;;;7.40;99.90;;;;;;5029507;28;20161;-70
2022/02/21 00:58:06;;;;;;;11.77;1.50;;;7.40;99.90;;;;;;5029827;28;20034;-70
2022/02/21 01:00:34;;;;;;;10.40;1.80;;;7.40;99.90;;;;;;5011682;28;20482;-70
2022/02/21 01:03:01;;;;;;;9.90;1.37;;;7.40;99.90;;;;;;5029650;28;20037;-70
2022/02/21 01:05:27;;;;;;;9.30;1.40;;;7.40;99.90;;;;;;5029569;28;20441;-70
2022/02/21 01:07:53;;;;;;;8.47;1.30;;;7.40;99.90;;;;;;5029825;28;20022;-70
2022/02/21 01:10:19;;;;;;;9.90;1.43;;;7.40;99.90;;;;;;5029228;28;20509;-70
2022/02/21 01:12:45;;;;;;;11.50;1.67;;;7.40;99.90;;;;;;5029433;28;20032;-70
2022/02/21 01:15:14;;;;;;;8.50;1.73;;;7.40;99.90;;;;;;5029133;28;20082;-70
2022/02/21 01:17:42;;;;;;;6.43;1.45;;;7.30;99.90;;;;;;5029231;28;20034;-70
2022/02/21 01:20:09;;;;;;;8.80;1.43;;;7.30;99.90;;;;;;5029028;28;20044;-70
2022/02/21 01:22:35;;;;;;;12.63;1.73;;;7.20;99.90;;;;;;4987043;28;1228682;-70
2022/02/21 01:25:04;;;;;;;10.83;1.50;;;7.20;99.90;;;;;;5029701;28;20025;-70
2022/02/21 01:27:31;;;;;;;11.32;1.85;;;7.20;99.90;;;;;;5029888;28;20053;-70
2022/02/21 01:29:57;;;;;;;13.53;1.60;;;7.20;99.90;;;;;;5032394;28;20033;-70
2022/02/21 01:32:23;;;;;;;11.00;1.73;;;7.10;99.90;;;;;;5033727;28;20036;-70
2022/02/21 01:34:49;;;;;;;14.30;1.40;;;7.10;99.90;;;;;;5033466;28;20025;-70
2022/02/21 01:37:15;;;;;;;12.60;1.50;;;7.10;99.90;;;;;;5033615;28;20049;-70
2022/02/21 01:39:41;;;;;;;10.13;1.30;;;7.10;99.90;;;;;;5015512;28;20045;-70
2022/02/21 01:42:08;;;;;;;6.80;1.00;;;7.10;99.90;;;;;;5033680;28;20107;-70
2022/02/21 01:44:37;;;;;;;10.37;1.77;;;7.10;99.90;;;;;;5032986;28;20390;-70
2022/02/21 01:47:07;;;;;;;10.65;1.88;;;7.00;99.90;;;;;;5033568;28;20378;-70
2022/02/21 01:49:34;;;;;;;10.20;1.47;;;7.00;99.90;;;;;;5033333;28;20029;-70
2022/02/21 01:52:01;;;;;;;9.17;2.20;;;7.00;99.90;;;;;;5033397;28;20504;-70
2022/02/21 01:54:27;;;;;;;9.97;1.33;;;7.00;99.90;;;;;;5033404;28;20233;-68
2022/02/21 01:56:53;;;;;;;11.97;1.53;;;7.00;99.90;;;;;;5033533;28;20033;-70
2022/02/21 01:59:20;;;;;;;12.30;2.10;;;6.90;99.90;;;;;;5032958;28;20064;-69
2022/02/21 02:01:48;;;;;;;10.93;1.50;;;6.90;99.90;;;;;;5033282;28;20075;-70
2022/02/21 02:04:14;;;;;;;11.53;1.73;;;6.90;99.90;;;;;;5033387;28;20030;-70
2022/02/21 02:06:40;;;;;;;13.00;1.80;;;6.90;99.90;;;;;;5033698;28;20109;-70
2022/02/21 02:09:07;;;;;;;11.30;1.97;;;6.90;99.90;;;;;;5033446;28;20048;-70
2022/02/21 02:11:35;;;;;;;16.30;3.00;;;6.90;99.90;;;;;;5033412;28;20030;-69
2022/02/21 02:14:01;;;;;;;13.27;1.57;;;6.90;99.90;;;;;;5033240;28;20029;-70
2022/02/21 02:16:27;;;;;;;8.97;1.70;;;6.80;99.90;;;;;;5033319;28;20057;-70
2022/02/21 02:18:53;;;;;;;15.10;2.30;;;6.80;99.90;;;;;;5033148;28;20060;-70
2022/02/21 02:21:22;;;;;;;15.27;2.83;;;6.80;99.90;;;;;;5131153;22;20152;-72
2022/02/21 02:23:49;;;;;;;14.15;1.92;;;6.80;99.90;;;;;;5013141;28;20036;-72
2022/02/21 02:26:19;;;;;;;13.33;1.87;;;6.70;99.90;;;;;;5013211;28;20108;-73
2022/02/21 02:28:51;;;;;;;15.53;2.17;;;6.70;99.90;;;;;;5013510;28;20030;-73
2022/02/21 02:31:17;;;;;;;10.10;1.90;;;6.70;99.90;;;;;;5013040;28;20410;-71
2022/02/21 02:33:44;;;;;;;14.53;2.13;;;6.70;99.90;;;;;;5012983;28;20022;-72
2022/02/21 02:36:10;;;;;;;12.93;1.80;;;6.70;99.90;;;;;;4995510;28;20026;-72
2022/02/21 02:38:37;;;;;;;16.70;1.93;;;6.70;99.90;;;;;;4995458;28;20052;-72
2022/02/21 02:41:10;;;;;;;14.10;2.10;;;6.70;99.90;;;;;;5012056;28;20497;-73
2022/02/21 02:43:37;;;;;;;19.07;2.00;;;6.70;99.90;;;;;;5013003;28;20497;-72
2022/02/21 02:46:03;;;;;;;16.57;2.00;;;6.70;99.90;;;;;;5012937;28;20132;-72
2022/02/21 02:48:29;;;;;;;13.20;2.07;;;6.70;99.90;;;;;;5013126;28;20473;-72
2022/02/21 02:50:56;;;;;;;15.60;2.20;;;6.70;99.90;;;;;;5013041;28;20052;-72
2022/02/21 02:53:21;;;;;;;12.87;2.00;;;6.70;99.90;;;;;;5012820;28;20087;-71
2022/02/21 02:55:47;;;;;;;16.30;2.80;;;6.70;99.90;;;;;;5012777;28;20112;-72
2022/02/21 02:58:13;;;;;;;14.00;1.87;;;6.80;99.90;;;;;;5012632;28;20029;-71
2022/02/21 03:00:39;;;;;;;9.50;1.90;;;6.80;99.90;;;;;;5012631;28;20054;-72
2022/02/21 03:03:05;;;;;;;9.93;1.57;;;6.70;99.90;;;;;;4994849;28;20372;-71
2022/02/21 03:05:31;;;;;;;13.13;1.93;;;6.70;99.90;;;;;;5012278;28;20037;-72
2022/02/21 03:07:57;;;;;;;13.87;2.40;;;6.70;99.90;;;;;;5012541;28;20544;-71
2022/02/21 03:10:23;;;;;;;9.90;1.77;;;6.70;99.90;;;;;;5012128;28;20422;-72
2022/02/21 03:12:49;;;;;;;14.67;1.77;;;6.80;99.90;;;;;;5012419;28;20033;-71
2022/02/21 03:15:15;;;;;;;11.23;1.60;;;6.70;99.90;;;;;;5011896;28;20088;-72
2022/02/21 03:17:41;;;;;;;12.10;3.03;;;6.70;99.90;;;;;;4994468;28;20144;-72
2022/02/21 03:20:09;;;;;;;13.43;2.23;;;6.80;99.90;;;;;;5012002;28;20073;-72
2022/02/21 03:22:34;;;;;;;12.90;2.90;;;6.80;99.90;;;;;;5011944;28;20026;-72
2022/02/21 03:25:01;;;;;;;11.47;2.20;;;6.80;99.90;;;;;;5011909;28;20113;-72
2022/02/21 03:27:27;;;;;;;10.43;2.20;;;6.70;99.90;;;;;;4994329;28;20021;-72
2022/02/21 03:29:52;;;;;;;12.90;2.30;;;6.60;99.90;;;;;;5011569;28;20030;-72
2022/02/21 03:32:18;;;;;;;16.73;2.97;;;6.50;99.90;;;;;;5011922;28;20042;-72
2022/02/21 03:34:44;;;;;;;13.97;2.90;;;6.50;99.90;;;;;;5011467;28;20030;-71
2022/02/21 03:37:10;;;;;;;14.00;2.70;;;6.50;99.90;;;;;;5011574;28;20041;-71
2022/02/21 03:39:36;;;;;;;11.17;2.70;;;6.50;99.90;;;;;;5011614;28;20036;-71
2022/02/21 03:42:02;;;;;;;9.50;1.60;;;6.50;99.90;;;;;;5011666;28;20156;-71
2022/02/21 03:44:28;;;;;;;14.63;2.63;;;6.50;99.90;;;;;;5011332;28;20479;-71
2022/02/21 03:46:54;;;;;;;10.47;2.40;;;6.50;99.90;;;;;;4977827;28;20033;-72
2022/02/21 03:49:20;;;;;;;11.67;1.70;;;6.50;99.90;;;;;;5011285;28;20506;-71
2022/02/21 03:51:46;;;;;;;13.43;1.87;;;6.40;99.90;;;;;;5011037;28;20138;-72
2022/02/21 03:54:12;;;;;;;15.73;2.17;;;6.40;99.90;;;;;;5011091;28;20112;-72
2022/02/21 03:56:38;;;;;;;10.40;1.47;;;6.40;99.90;;;;;;5011375;28;20022;-72
2022/02/21 03:59:04;;;;;;;12.27;2.13;;;6.40;99.90;;;;;;4993640;28;20026;-72
2022/02/21 04:01:30;;;;;;;11.37;1.90;;;6.40;99.90;;;;;;5011077;28;20048;-71
2022/02/21 04:03:56;;;;;;;11.47;2.10;;;6.40;99.90;;;;;;4993476;28;20065;-71
2022/02/21 04:06:22;;;;;;;10.30;2.03;;;6.30;99.90;;;;;;5011479;28;20474;-74
2022/02/21 04:08:48;;;;;;;9.60;1.60;;;6.30;99.90;;;;;;5011096;28;20459;-72
2022/02/21 04:11:14;;;;;;;12.03;2.17;;;6.30;99.90;;;;;;5011161;28;20148;-72
2022/02/21 04:13:40;;;;;;;9.63;1.63;;;6.30;99.90;;;;;;5010812;28;20085;-71
2022/02/21 04:16:06;;;;;;;6.37;1.20;;;6.30;99.90;;;;;;5011191;28;20378;-72
2022/02/21 04:18:32;;;;;;;8.63;1.27;;;6.20;99.90;;;;;;4993605;28;20073;-71
2022/02/21 04:20:58;;;;;;;12.23;1.40;;;6.00;99.90;;;;;;5010860;28;20041;-72
2022/02/21 04:23:23;;;;;;;11.27;1.53;;;5.80;99.90;;;;;;5010810;28;20029;-72
2022/02/21 04:25:49;;;;;;;12.00;1.63;;;5.70;99.90;;;;;;5010944;28;20486;-72
2022/02/21 04:28:18;;;;;;;11.53;1.87;;;5.60;99.90;;;;;;4993175;28;20053;-71
2022/02/21 04:30:45;;;;;;;8.45;1.73;;;5.60;99.90;;;;;;5011176;28;20018;-72
2022/02/21 04:33:11;;;;;;;12.23;2.77;;;5.50;99.90;;;;;;5011188;28;20056;-72
2022/02/21 04:35:37;;;;;;;11.47;1.90;;;5.40;99.90;;;;;;5010710;28;20034;-71
2022/02/21 04:38:03;;;;;;;9.47;1.77;;;5.30;99.90;;;;;;5010965;28;20482;-71
2022/02/21 04:40:29;;;;;;;12.03;2.37;;;5.30;99.90;;;;;;5010615;28;20026;-72
2022/02/21 04:42:57;;;;;;;8.43;1.83;;;5.30;99.90;;;;;;5010675;28;20041;-71
2022/02/21 04:45:24;;;;;;;9.30;2.20;;;5.30;99.90;;;;;;5010627;28;20030;-72
2022/02/21 04:47:51;;;;;;;13.17;1.63;;;5.30;99.90;;;;;;5010850;28;20513;-72
2022/02/21 04:50:18;;;;;;;10.17;1.67;;;5.40;99.90;;;;;;5010449;28;20084;-72
2022/02/21 04:52:44;;;;;;;7.47;1.60;;;5.40;99.90;;;;;;5010724;28;20034;-72
2022/02/21 04:55:12;;;;;;;13.03;2.50;;;5.40;99.90;;;;;;4992814;28;20065;-71
2022/02/21 04:57:38;;;;;;;12.07;2.10;;;5.40;99.90;;;;;;5010686;28;20120;-71
2022/02/21 05:00:07;;;;;;;9.03;2.30;;;5.40;99.90;;;;;;5010346;28;20432;-72
2022/02/21 05:02:33;;;;;;;10.60;2.70;;;5.40;99.90;;;;;;5010537;28;20026;-72
2022/02/21 05:04:59;;;;;;;14.07;1.90;;;5.40;99.90;;;;;;5013509;28;20033;-72
2022/02/21 05:07:25;;;;;;;12.73;2.27;;;5.50;99.90;;;;;;5014636;28;20117;-73
2022/02/21 05:09:51;;;;;;;10.13;1.47;;;5.50;99.90;;;;;;4996802;28;20033;-72
2022/02/21 05:12:17;;;;;;;14.13;2.13;;;5.50;99.90;;;;;;5014286;28;20038;-73
2022/02/21 05:14:43;;;;;;;11.40;2.03;;;5.40;99.90;;;;;;5014142;28;20117;-71
2022/02/21 05:17:09;;;;;;;10.83;1.80;;;5.30;99.90;;;;;;4996931;28;20033;-72
2022/02/21 05:19:34;;;;;;;10.03;1.40;;;5.30;99.90;;;;;;5014237;28;20030;-71
2022/02/21 05:22:00;;;;;;;10.80;2.37;;;5.30;99.90;;;;;;5014160;28;20037;-73
2022/02/21 05:24:26;;;;;;;10.13;1.60;;;5.30;99.90;;;;;;4996461;28;20398;-71
2022/02/21 05:26:53;;;;;;;10.63;2.10;;;5.40;99.90;;;;;;5014171;28;20033;-72
2022/02/21 05:29:19;;;;;;;11.77;1.63;;;5.40;99.90;;;;;;5014178;28;20037;-72
2022/02/21 05:31:46;;;;;;;11.80;1.87;;;5.40;99.90;;;;;;5014268;28;20034;-72
2022/02/21 05:34:13;;;;;;;13.17;2.23;;;5.40;99.90;;;;;;5013999;28;20672;-72
2022/02/21 05:36:39;;;;;;;11.97;1.73;;;5.50;99.90;;;;;;5009318;28;20042;-69
2022/02/21 05:39:05;;;;;;;10.30;1.80;;;5.50;99.90;;;;;;5011993;28;20083;-72
2022/02/21 05:41:31;;;;;;;18.03;2.50;;;5.50;99.90;;;;;;4996160;28;20038;-72
2022/02/21 05:43:57;;;;;;;15.30;1.93;;;5.50;99.90;;;;;;4995875;28;20129;-71
2022/02/21 05:46:23;;;;;;;13.00;3.57;;;5.50;99.90;;;;;;5013471;28;20076;-72
2022/02/21 05:48:49;;;;;;;12.33;2.20;;;5.50;99.90;;;;;;5013289;28;20102;-70
2022/02/21 05:51:15;;;;;;;10.33;2.47;;;5.50;99.90;;;;;;5013232;28;20057;-71
2022/02/21 05:53:46;;;;;;;11.03;1.63;;;5.40;99.90;;;;;;4995438;28;20034;-68
2022/02/21 05:56:13;;;;;;;14.13;1.73;;;5.40;99.90;;;;;;5013220;28;20114;-70
2022/02/21 05:58:40;;;;;;;10.43;1.67;;;5.30;99.90;;;;;;5013032;28;20096;-70
2022/02/21 06:01:06;;;;;;;9.67;1.70;;;5.20;99.90;;;;;;5013197;28;20533;-69
2022/02/21 06:03:32;;;;;;;13.00;1.60;;;5.20;99.90;;;;;;5004872;28;20051;-73
2022/02/21 06:05:58;;;;;;;9.63;1.90;;;5.20;99.90;;;;;;5025388;28;20105;-71
2022/02/21 06:08:24;;;;;;;14.23;1.97;;;5.20;99.90;;;;;;5032887;28;20017;-71
2022/02/21 06:10:50;;;;;;;6.87;1.60;;;5.20;99.90;;;;;;5015319;28;20678;-70
2022/02/21 06:13:16;;;;;;;7.00;1.57;;;5.10;99.90;;;;;;5032586;28;20039;-71
2022/02/21 06:15:42;;;;;;;9.50;1.87;;;5.10;99.90;;;;;;5032314;28;20034;-70
2022/02/21 06:18:08;;;;;;;13.20;2.97;;;5.10;99.90;;;;;;5032111;28;20040;-71
2022/02/21 06:20:34;;;;;;;8.83;1.97;;;5.10;99.90;;;;;;5032186;28;20034;-71
2022/02/21 06:23:00;;;;;;;9.00;1.80;;;5.00;99.90;;;;;;5032198;28;20413;-70
2022/02/21 06:25:26;;;;;;;13.37;2.43;;;5.10;99.90;;;;;;5032180;28;20045;-71
2022/02/21 06:27:52;;;;;;;9.57;1.80;;;5.10;99.90;;;;;;5032262;28;20022;-71
2022/02/21 06:30:18;;;;;;;8.50;1.90;;;5.10;99.90;;;;;;5032118;28;20033;-71
2022/02/21 06:32:44;;;;;;;9.73;1.80;;;5.10;99.90;;;;;;5032289;28;20474;-71
2022/02/21 06:35:11;;;;;;;9.07;1.63;;;5.10;99.90;;;;;;5032127;28;20060;-71
2022/02/21 06:37:52;;;;;;;11.13;1.83;;;5.20;99.90;;;;;;5014180;28;20025;-71
2022/02/21 06:40:18;;;;;;;13.17;1.53;;;5.20;99.90;;;;;;5031885;28;20033;-71
2022/02/21 06:42:44;;;;;;;10.93;2.27;;;5.20;99.90;;;;;;5031822;28;20026;-71
2022/02/21 06:45:10;;;;;;;10.73;1.70;;;5.20;99.90;;;;;;5031707;28;20116;-71
2022/02/21 06:47:36;;;;;;;11.77;1.50;;;5.20;99.90;;;;;;5013892;28;20106;-71
2022/02/21 06:50:04;;;;;;;10.43;1.80;;;5.20;99.90;;;;;;5031662;28;20445;-70
2022/02/21 06:52:33;;;;;;;10.97;2.10;;;5.10;99.90;;;;;;5032085;28;20402;-71
2022/02/21 06:55:00;;;;;;;10.77;2.28;;;5.10;99.90;;;;;;5031822;28;20033;-71
2022/02/21 06:57:26;;;;;;;10.77;2.10;;;5.20;99.90;;;;;;5031989;28;20124;-69
2022/02/21 06:59:53;;;;;;;10.40;1.57;;;5.20;99.90;;;;;;5031925;28;20033;-70
2022/02/21 07:02:18;;;;;;;10.30;1.83;;;5.20;99.90;;;;;;5031717;28;20116;-70
2022/02/21 07:04:45;;;;;;;15.23;2.50;;;5.20;99.90;;;;;;5031855;28;20113;-70
2022/02/21 07:07:10;;;;;;;9.80;1.93;;;5.20;99.90;;;;;;5031787;28;20037;-70
2022/02/21 07:09:36;;;;;;;9.50;1.97;;;5.20;99.90;;;;;;5031508;28;20060;-70
2022/02/21 07:12:03;;;;;;;10.10;2.43;;;5.30;99.90;;;;;;5014035;28;20056;-71
2022/02/21 07:14:29;;;;;;;11.17;2.13;;;5.30;99.90;;;;;;5031482;28;20029;-70
2022/02/21 07:16:55;;;;;;;12.33;2.30;;;5.30;99.90;;;;;;4998357;28;20120;-69
2022/02/21 07:19:21;;;;;;;12.17;3.13;;;5.30;99.90;;;;;;4999288;28;20054;-70
2022/02/21 07:21:47;;;;;;;13.23;3.17;;;5.40;99.90;;;;;;4992079;28;20117;-70
2022/02/21 07:24:15;;;;;;;14.90;3.50;;;5.30;99.90;;;;;;4991880;28;20109;-70
2022/02/21 07:26:41;;;;;;;17.87;3.47;;;5.40;99.90;;;;;;4973954;28;20053;-72
2022/02/21 07:29:07;;;;;;;19.73;3.60;;;5.40;99.90;;;;;;4993082;28;20030;-70
2022/02/21 07:31:34;;;;;;;20.60;4.60;;;5.40;99.90;;;;;;4992390;28;20026;-71
2022/02/21 07:34:00;;;;;;;19.10;4.37;;;5.60;99.90;;;;;;4975030;28;20193;-71
2022/02/21 07:36:27;;;;;;;19.97;4.90;;;5.90;99.90;;;;;;4993089;28;20072;-71
2022/02/21 07:38:53;;;;;;;24.27;4.17;;;6.00;99.90;;;;;;4991984;28;20025;-71
2022/02/21 07:41:19;;;;;;;14.10;2.97;;;6.00;99.90;;;;;;5005037;28;20394;-70
2022/02/21 07:43:44;;;;;;;15.33;3.23;;;6.00;99.90;;;;;;4992406;28;20044;-71
2022/02/21 07:46:11;;;;;;;12.77;2.70;;;5.90;99.90;;;;;;5010689;28;20030;-70
2022/02/21 07:48:37;;;;;;;19.60;3.03;;;5.80;99.90;;;;;;4976912;28;20030;-70
2022/02/21 07:51:03;;;;;;;19.53;5.90;;;5.80;99.90;;;;;;5009813;28;20030;-72
2022/02/21 07:53:29;;;;;;;21.97;4.43;;;5.90;99.90;;;;;;5007532;28;20034;-72
2022/02/21 07:55:55;;;;;;;15.37;2.80;;;5.80;99.90;;;;;;4992716;28;20033;-71
2022/02/21 07:58:21;;;;;;;15.00;2.63;;;5.90;99.90;;;;;;5010272;28;20038;-71
2022/02/21 08:00:47;;;;;;;12.93;2.97;;;5.80;99.90;;;;;;4992279;28;20069;-73
2022/02/21 08:03:14;;;;;;;13.67;2.50;;;5.90;99.90;;;;;;5010107;28;20041;-71
2022/02/21 08:05:40;;;;;;;12.50;2.10;;;5.90;99.90;;;;;;4992645;28;20079;-71
2022/02/21 08:08:06;;;;;;;15.93;2.87;;;5.90;99.90;;;;;;5009979;28;20033;-69
2022/02/21 08:10:32;;;;;;;13.27;2.40;;;6.00;99.90;;;;;;5009857;28;20018;-72
2022/02/21 08:12:58;;;;;;;12.20;1.90;;;6.10;99.90;;;;;;4992235;28;20545;-69
2022/02/21 08:15:24;;;;;;;10.73;1.90;;;6.10;99.90;;;;;;5010043;28;20038;-71
2022/02/21 08:17:50;;;;;;;10.00;2.00;;;6.10;99.90;;;;;;4992557;28;20042;-71
2022/02/21 08:20:19;;;;;;;14.93;2.50;;;6.10;99.90;;;;;;5009704;28;20042;-74
2022/02/21 08:22:46;;;;;;;12.82;2.67;;;6.10;99.90;;;;;;5010131;28;20034;-73
2022/02/21 08:25:14;;;;;;;11.73;1.93;;;6.20;99.90;;;;;;4999908;28;20034;-71
2022/02/21 08:27:41;;;;;;;8.87;1.53;;;6.20;99.90;;;;;;5009664;28;20036;-74
2022/02/21 08:30:12;;;;;;;10.93;1.90;;;6.20;99.90;;;;;;5009642;28;20017;-70
2022/02/21 08:32:38;;;;;;;8.37;1.80;;;6.20;99.90;;;;;;5009541;28;20033;-71
2022/02/21 08:35:05;;;;;;;14.07;1.80;;;6.20;99.90;;;;;;5009514;28;20030;-69
2022/02/21 08:37:31;;;;;;;10.80;1.80;;;6.10;99.90;;;;;;5009643;28;20033;-70
2022/02/21 08:39:57;;;;;;;9.93;1.80;;;6.20;99.90;;;;;;5008418;28;20084;-72
2022/02/21 08:42:23;;;;;;;11.73;1.70;;;6.20;99.90;;;;;;5008275;28;20170;-74
2022/02/21 08:44:49;;;;;;;9.80;1.73;;;6.20;99.90;;;;;;5010015;28;20056;-72
2022/02/21 08:47:16;;;;;;;9.87;1.50;;;6.20;99.90;;;;;;5009981;28;20022;-71
2022/02/21 08:49:43;;;;;;;10.33;1.80;;;6.20;99.90;;;;;;5008374;28;20328;-72
2022/02/21 08:52:10;;;;;;;13.33;2.07;;;6.20;99.90;;;;;;5008870;28;20034;-73
2022/02/21 08:54:36;;;;;;;10.80;1.67;;;6.30;99.90;;;;;;5007905;28;20338;-72
2022/02/21 08:57:03;;;;;;;11.03;1.93;;;6.30;99.90;;;;;;5009209;28;20048;-72
2022/02/21 08:59:29;;;;;;;14.90;2.20;;;6.40;99.90;;;;;;5010258;28;20038;-70
2022/02/21 09:01:55;;;;;;;12.50;1.93;;;6.40;99.90;;;;;;5009093;28;20037;-71
2022/02/21 09:04:21;;;;;;;10.40;2.10;;;6.50;99.90;;;;;;5010404;28;20037;-71
2022/02/21 09:06:48;;;;;;;10.43;1.70;;;6.50;99.90;;;;;;5009491;28;20081;-71
2022/02/21 09:09:14;;;;;;;14.87;1.80;;;6.50;99.90;;;;;;5009342;28;20041;-71
2022/02/21 09:11:41;;;;;;;11.13;1.70;;;6.60;99.90;;;;;;5007429;28;20120;-70
2022/02/21 09:14:07;;;;;;;9.03;2.00;;;6.60;99.90;;;;;;5009053;28;20101;-70
2022/02/21 09:16:33;;;;;;;11.93;1.43;;;6.70;99.90;;;;;;5009213;28;20497;-70
2022/02/21 09:18:59;;;;;;;12.87;2.70;;;6.80;99.90;;;;;;5009211;28;20112;-71
2022/02/21 09:21:25;;;;;;;7.07;2.03;;;6.90;99.90;;;;;;5008190;28;20056;-71
2022/02/21 09:23:51;;;;;;;13.70;3.07;;;6.80;99.90;;;;;;5008840;28;20515;-71
2022/02/21 09:26:17;;;;;;;10.07;2.13;;;6.80;99.90;;;;;;5008974;28;20046;-70
2022/02/21 09:28:43;;;;;;;9.70;2.00;;;6.90;99.90;;;;;;5008146;28;20486;-71
2022/02/21 09:31:09;;;;;;;11.33;2.40;;;6.90;99.90;;;;;;5009376;28;20034;-70
2022/02/21 09:33:35;;;;;;;8.43;1.47;;;6.90;99.90;;;;;;5008860;28;20033;-71
2022/02/21 09:36:01;;;;;;;9.23;2.20;;;6.90;99.90;;;;;;5009463;28;20022;-71
2022/02/21 09:38:27;;;;;;;12.57;2.17;;;6.90;99.90;;;;;;5007880;28;20034;-70
2022/02/21 09:40:55;;;;;;;7.77;1.40;;;6.90;99.90;;;;;;5009673;28;20622;-69
2022/02/21 09:43:29;;;;;;;7.67;1.60;;;7.00;99.90;;;;;;5008719;28;20030;-70
2022/02/21 09:46:00;;;;;;;10.73;1.83;;;6.90;99.90;;;;;;5009517;28;20030;-70
2022/02/21 09:48:28;;;;;;;11.10;1.90;;;6.90;99.90;;;;;;5009401;28;20036;-71
2022/02/21 09:50:59;;;;;;;8.93;1.80;;;7.00;99.90;;;;;;5012120;28;20053;-70
2022/02/21 09:53:29;;;;;;;8.97;1.77;;;6.90;99.90;;;;;;5011085;28;20482;-71
2022/02/21 09:55:56;;;;;;;10.03;1.90;;;7.00;99.90;;;;;;4995110;28;20084;-70
2022/02/21 09:58:25;;;;;;;16.57;2.43;;;7.00;99.90;;;;;;5011547;28;20101;-71
2022/02/21 10:00:53;;;;;;;9.50;1.67;;;7.00;99.90;;;;;;5011374;28;20084;-71
2022/02/21 10:03:37;;;;;;;16.30;2.50;;;7.00;99.90;;;;;;5010322;28;20112;-71
2022/02/21 10:06:19;;;;;;;11.23;2.13;;;7.00;99.90;;;;;;5012378;28;20101;-71
2022/02/21 10:09:10;;;;;;;11.17;2.00;;;7.00;99.90;;;;;;5011209;28;20030;-72
2022/02/21 10:11:38;;;;;;;11.63;2.13;;;6.90;99.90;;;;;;5010969;28;20072;-72
2022/02/21 10:14:18;;;;;;;10.90;1.97;;;6.90;99.90;;;;;;5011601;28;20036;-71
2022/02/21 10:16:54;;;;;;;10.00;1.77;;;6.80;99.90;;;;;;5012272;28;20101;-72
2022/02/21 10:19:25;;;;;;;12.00;1.70;;;6.90;99.90;;;;;;5012572;28;20175;-71
2022/02/21 10:22:07;;;;;;;13.17;2.00;;;6.80;99.90;;;;;;5011667;28;20061;-72
2022/02/21 10:24:42;;;;;;;12.00;1.80;;;6.90;99.90;;;;;;5011522;28;20040;-71
2022/02/21 10:27:12;;;;;;;11.30;1.80;;;6.80;99.90;;;;;;5011965;28;20022;-69
2022/02/21 10:30:00;;;;;;;10.13;2.10;;;6.80;99.90;;;;;;5011929;28;20139;-74
2022/02/21 10:32:30;;;;;;;14.03;2.93;;;6.60;99.90;;;;;;5010281;28;20668;-73
2022/02/21 10:35:09;;;;;;;14.38;2.75;;;6.40;99.90;;;;;;5011281;28;20041;-72
2022/02/21 10:37:45;;;;;;;11.55;2.10;;;6.30;99.90;;;;;;5010475;28;20034;-73
2022/02/21 10:40:17;;;;;;;14.17;2.27;;;6.10;99.90;;;;;;5011566;28;20030;-74
2022/02/21 10:42:46;;;;;;;12.37;2.47;;;6.00;99.90;;;;;;5009948;28;20036;-73
2022/02/21 10:45:15;;;;;;;10.00;1.50;;;5.80;99.90;;;;;;5010993;28;20026;-73
2022/02/21 10:48:00;;;;;;;7.97;1.75;;;5.70;99.90;;;;;;5011662;28;20049;-73
2022/02/21 10:50:27;;;;;;;14.83;2.10;;;5.60;99.90;;;;;;5011325;28;20510;-73
2022/02/21 10:52:54;;;;;;;10.23;2.40;;;5.60;99.90;;;;;;5011249;28;20040;-73
2022/02/21 10:55:20;;;;;;;12.23;2.40;;;5.60;99.90;;;;;;5012776;28;20084;-73
2022/02/21 10:57:47;;;;;;;16.07;3.30;;;5.60;99.90;;;;;;5030884;28;20033;-72
2022/02/21 11:00:14;;;;;;;21.23;4.63;;;5.70;99.90;;;;;;5031779;28;20052;-71
2022/02/21 11:02:50;;;;;;;20.33;5.27;;;5.70;99.90;;;;;;5030588;28;20033;-74
2022/02/21 11:05:24;;;;;;;22.53;5.20;;;5.80;99.90;;;;;;5013918;28;20048;-71
2022/02/21 11:07:52;;;;;;;13.07;3.73;;;5.70;99.90;;;;;;5012939;28;20034;-72
2022/02/21 11:10:18;;;;;;;18.60;3.50;;;5.80;99.90;;;;;;5036141;22;20073;-85
2022/02/21 11:12:49;;;;;;;13.63;3.23;;;5.80;99.90;;;;;;4977279;28;20065;-85
2022/02/21 11:15:15;;;;;;;12.40;3.70;;;5.80;99.90;;;;;;4992107;28;20030;-85
2022/02/21 11:17:41;;;;;;;16.80;4.20;;;5.80;99.90;;;;;;4993325;28;20103;-86
2022/02/21 11:20:09;;;;;;;18.23;3.90;;;5.90;99.90;;;;;;5010292;28;20030;-86
2022/02/21 11:22:36;;;;;;;15.57;3.63;;;5.90;99.90;;;;;;5010072;28;20038;-85
2022/02/21 11:25:26;;;;;;;13.77;3.30;;;5.90;99.90;;;;;;5010604;28;20033;-86
2022/02/21 11:28:04;;;;;;;16.20;3.30;;;5.90;99.90;;;;;;4992935;28;20034;-82
2022/02/21 11:30:31;;;;;;;13.37;3.10;;;5.90;99.90;;;;;;5009837;28;20115;-82
2022/02/21 11:33:08;;;;;;;13.50;3.43;;;5.90;99.90;;;;;;5010635;28;20045;-85
2022/02/21 11:35:44;;;;;;;17.27;3.40;;;5.90;99.90;;;;;;5003398;28;20170;-82
2022/02/21 11:38:17;;;;;;;20.53;3.33;;;5.90;99.90;;;;;;4989132;28;20042;-85
2022/02/21 11:40:53;;;;;;;13.97;2.83;;;6.00;99.90;;;;;;5008420;28;20096;-88
2022/02/21 11:43:27;;;;;;;13.87;2.20;;;6.00;99.90;;;;;;5010335;28;20343;-87
2022/02/21 11:46:03;;;;;;;14.30;2.13;;;5.90;99.90;;;;;;5011358;28;20418;-88
2022/02/21 11:48:55;;;;;;;10.47;1.90;;;6.00;99.90;;;;;;5009681;28;20030;-86
2022/02/21 11:51:32;;;;;;;13.47;2.33;;;6.00;99.90;;;;;;5011046;28;20057;-90
2022/02/21 11:54:13;;;;;;;12.73;2.10;;;6.10;99.90;;;;;;4993620;28;20042;-89
2022/02/21 11:56:47;;;;;;;8.97;2.30;;;6.10;99.90;;;;;;4955139;28;20039;-95
2022/02/21 11:59:35;;;;;;;9.83;1.90;;;6.20;99.90;;;;;;4998300;23;20147;-69
2022/02/21 12:02:12;;;;;;;12.80;1.70;;;6.20;99.90;;;;;;5030070;28;20042;-68
2022/02/21 12:05:17;;;;;;;11.30;2.00;;;6.20;99.90;;;;;;5030159;28;20025;-73
2022/02/21 12:07:44;;;;;;;8.33;1.63;;;6.10;99.90;;;;;;5024104;28;20451;-68
2022/02/21 12:10:12;;;;;;;13.93;2.20;;;6.00;99.90;;;;;;5010506;28;20053;-68
2022/02/21 12:13:02;;;;;;;15.63;2.37;;;6.00;99.90;;;;;;5029426;28;20037;-71
2022/02/21 12:15:32;;;;;;;6.70;1.73;;;5.90;99.90;;;;;;5026663;28;20029;-70
2022/02/21 12:18:07;;;;;;;15.03;2.30;;;5.90;99.90;;;;;;5029713;28;20037;-72
2022/02/21 12:20:42;;;;;;;12.67;2.30;;;5.80;99.90;;;;;;5012062;28;20042;-71
2022/02/21 12:23:15;;;;;;;9.87;1.90;;;5.80;99.90;;;;;;5029309;28;20033;-71
2022/02/21 12:25:43;;;;;;;13.30;2.30;;;5.90;99.90;;;;;;5027631;28;20030;-71
2022/02/21 12:28:12;;;;;;;13.97;2.80;;;5.90;99.90;;;;;;5029080;28;20052;-74
2022/02/21 12:30:49;;;;;;;16.05;2.60;;;5.90;99.90;;;;;;5012733;28;20021;-71
2022/02/21 12:33:37;;;;;;;15.30;2.70;;;5.90;99.90;;;;;;5030361;28;20425;-72
2022/02/21 12:36:07;;;;;;;11.93;2.20;;;6.00;99.90;;;;;;5030639;28;20037;-73
2022/02/21 12:38:35;;;;;;;19.57;3.40;;;6.00;99.90;;;;;;5030639;28;20467;-68
2022/02/21 12:41:05;;;;;;;12.83;2.13;;;6.10;99.90;;;;;;5030492;28;20038;-70
2022/02/21 12:43:46;;;;;;;15.00;2.43;;;6.10;99.90;;;;;;5029996;28;20486;-73
2022/02/21 12:47:00;;;;;;;13.97;2.37;;;6.10;99.90;;;;;;5013506;28;20099;-73
2022/02/21 12:49:33;;;;;;;10.33;2.00;;;6.40;99.90;;;;;;5002268;28;20048;-73
2022/02/21 12:52:08;;;;;;;13.03;2.13;;;6.70;99.90;;;;;;5011116;28;20026;-69
2022/02/21 12:54:37;;;;;;;16.90;3.67;;;6.70;99.90;;;;;;5008067;28;20045;-74
2022/02/21 12:57:04;;;;;;;12.32;2.25;;;6.50;99.90;;;;;;5009373;28;20172;-74